Time;durP1;ratioP1;P1;durP2;ratioP2;P2;SDS_P1;SDS_P2;PMS_P1;PMS_P2;Temp;Humidity;BMP_temperature;BMP_pressure;BME280_temperature;BME280_humidity;BME280_pressure;Samples;Min_cycle;Max_cycle;Signal;HPM_P1;HPM_P2
2022/07/31 00:00:05;;;;;;;;;;;18.50;99.90;;;;;;5137481;27;19927;-69
2022/07/31 00:02:30;;;;;;;;;;;18.50;99.90;;;;;;5137075;27;20298;-69
2022/07/31 00:04:56;;;;;;;;;;;18.50;99.90;;;;;;5137274;27;19923;-68
2022/07/31 00:07:22;;;;;;;;;;;18.40;99.90;;;;;;5137138;27;20301;-69
2022/07/31 00:09:47;;;;;;;;;;;18.50;99.90;;;;;;5118940;27;19923;-70
2022/07/31 00:12:13;;;;;;;;;;;18.40;99.90;;;;;;5118051;27;20327;-69
2022/07/31 00:14:38;;;;;;;;;;;17.90;99.90;;;;;;5136850;27;20090;-70
2022/07/31 00:17:04;;;;;;;;;;;18.40;99.90;;;;;;5136743;27;20391;-69
2022/07/31 00:19:29;;;;;;;;;;;18.40;99.90;;;;;;5137197;27;19923;-69
2022/07/31 00:21:56;;;;;;;;;;;18.40;99.90;;;;;;5136816;27;20301;-69
2022/07/31 00:24:21;;;;;;;;;;;18.40;99.90;;;;;;5136732;27;19930;-69
2022/07/31 00:26:47;;;;;;;;;;;18.40;99.90;;;;;;5118544;27;19927;-68
2022/07/31 00:29:12;;;;;;;;;;;18.40;99.90;;;;;;5118280;27;19927;-69
2022/07/31 00:31:38;;;;;;;;;;;18.40;99.90;;;;;;5117523;27;19923;-68
2022/07/31 00:34:03;;;;;;;;;;;18.40;99.90;;;;;;5136571;27;19931;-70
2022/07/31 00:36:29;;;;;;;;;;;18.40;99.90;;;;;;5136374;27;20022;-69
2022/07/31 00:38:55;;;;;;;;;;;18.40;99.90;;;;;;5136435;27;19934;-69
2022/07/31 00:41:20;;;;;;;;;;;18.40;99.90;;;;;;5136441;27;19923;-70
2022/07/31 00:43:46;;;;;;;;;;;18.30;99.90;;;;;;5136363;27;19923;-69
2022/07/31 00:46:11;;;;;;;;;;;18.30;99.90;;;;;;5136186;27;19923;-69
2022/07/31 00:48:37;;;;;;;;;;;18.30;99.90;;;;;;5136334;27;19975;-69
2022/07/31 00:51:03;;;;;;;;;;;18.30;99.90;;;;;;5136021;27;19923;-69
2022/07/31 00:53:28;;;;;;;;;;;18.30;99.90;;;;;;5136218;27;19937;-70
2022/07/31 00:55:56;;;;;;;;;;;18.30;99.90;;;;;;5136173;27;19929;-69
2022/07/31 00:58:21;;;;;;;;;;;18.30;99.90;;;;;;5136050;27;20002;-69
2022/07/31 01:00:47;;;;;;;;;;;18.30;99.90;;;;;;5135981;27;20446;-70
2022/07/31 01:03:13;;;;;;;;;;;18.30;99.90;;;;;;5117645;27;19924;-69
2022/07/31 01:05:38;;;;;;;;;;;18.30;99.90;;;;;;5135862;27;20442;-69
2022/07/31 01:08:04;;;;;;;;;;;18.30;99.90;;;;;;5135057;27;19923;-69
2022/07/31 01:10:46;;;;;;;;;;;18.20;99.90;;;;;;5135792;27;19930;-69
2022/07/31 01:13:14;;;;;;;;;;;18.30;99.90;;;;;;5135674;27;19923;-69
2022/07/31 01:15:40;;;;;;;;;;;18.20;99.90;;;;;;5135884;27;20263;-69
2022/07/31 01:18:07;;;;;;;;;;;18.20;99.90;;;;;;5135704;27;19924;-69
2022/07/31 01:20:33;;;;;;;;;;;18.20;99.90;;;;;;5135794;27;19968;-70
2022/07/31 01:23:11;;;;;;;;;;;18.20;99.90;;;;;;5117494;27;19927;-70
2022/07/31 01:25:46;;;;;;;;;;;18.20;99.90;;;;;;5135585;27;19971;-70
2022/07/31 01:28:30;;;;;;;;;;;18.20;99.90;;;;;;5135504;27;20278;-69
2022/07/31 01:31:10;;;;;;;;;;;18.20;99.90;;;;;;5135265;27;19987;-69
2022/07/31 01:33:41;;;;;;;;;;;19.10;99.90;;;;;;5117338;27;19970;-69
2022/07/31 01:36:12;;;;;;;;;;;18.10;99.90;;;;;;5135297;27;19924;-69
2022/07/31 01:38:39;;;;;;;;;;;18.20;99.90;;;;;;5099848;27;19923;-69
2022/07/31 01:41:07;;;;;;;;;;;18.10;99.90;;;;;;5135495;27;20461;-69
2022/07/31 01:43:36;;;;;;;;;;;18.10;99.90;;;;;;5135593;27;19923;-69
2022/07/31 01:46:03;;;;;;;;;;;18.10;99.90;;;;;;5135268;27;20401;-70
2022/07/31 01:48:30;;;;;;;;;;;18.10;99.90;;;;;;5135009;27;20301;-69
2022/07/31 01:50:57;;;;;;;;;;;18.10;99.90;;;;;;5135007;27;19931;-70
2022/07/31 01:53:23;;;;;;;;;;;18.10;99.90;;;;;;5135004;27;19946;-69
2022/07/31 01:55:50;;;;;;;;;;;17.50;99.90;;;;;;5117160;27;19930;-69
2022/07/31 01:58:17;;;;;;;;;;;18.10;99.90;;;;;;5117050;27;19971;-69
2022/07/31 02:00:43;;;;;;;;;;;18.10;99.90;;;;;;5134998;27;20010;-69
2022/07/31 02:03:10;;;;;;;;;;;18.00;99.90;;;;;;5134823;27;19934;-69
2022/07/31 02:05:36;;;;;;;;;;;18.00;99.90;;;;;;5134873;27;20023;-68
2022/07/31 02:08:03;;;;;;;;;;;18.00;99.90;;;;;;5134745;27;20398;-69
2022/07/31 02:10:29;;;;;;;;;;;18.00;99.90;;;;;;5134951;27;19930;-68
2022/07/31 02:12:55;;;;;;;;;;;18.00;99.90;;;;;;5134806;27;20014;-70
2022/07/31 02:15:21;;;;;;;;;;;17.90;99.90;;;;;;5134772;27;19984;-70
2022/07/31 02:17:47;;;;;;;;;;;17.90;99.90;;;;;;5134628;27;19928;-70
2022/07/31 02:20:14;;;;;;;;;;;17.90;99.90;;;;;;5134489;27;19923;-69
2022/07/31 02:22:39;;;;;;;;;;;17.80;99.90;;;;;;5134569;27;20373;-69
2022/07/31 02:25:05;;;;;;;;;;;17.80;99.90;;;;;;5116763;28;19976;-70
2022/07/31 02:27:32;;;;;;;;;;;17.80;99.90;;;;;;5134281;28;19967;-71
2022/07/31 02:29:59;;;;;;;;;;;17.80;99.90;;;;;;5114286;28;19930;-69
2022/07/31 02:32:24;;;;;;;;;;;17.70;99.90;;;;;;5113782;28;19965;-70
2022/07/31 02:34:51;;;;;;;;;;;17.70;99.90;;;;;;5095914;28;19924;-68
2022/07/31 02:37:17;;;;;;;;;;;17.70;99.90;;;;;;5113835;28;19924;-69
2022/07/31 02:39:43;;;;;;;;;;;17.70;99.90;;;;;;5130114;28;19931;-69
2022/07/31 02:42:09;;;;;;;;;;;17.60;99.90;;;;;;5114147;28;20020;-70
2022/07/31 02:44:36;;;;;;;;;;;17.60;99.90;;;;;;5114001;28;19981;-67
2022/07/31 02:47:04;;;;;;;;;;;17.60;99.90;;;;;;5114000;28;19984;-70
2022/07/31 02:49:30;;;;;;;;;;;17.60;99.90;;;;;;5113927;28;20390;-68
2022/07/31 02:51:56;;;;;;;;;;;17.60;99.90;;;;;;5113778;28;19935;-68
2022/07/31 02:54:23;;;;;;;;;;;17.60;99.90;;;;;;5114112;28;19924;-69
2022/07/31 02:56:49;;;;;;;;;;;17.60;99.90;;;;;;5113776;28;20349;-69
2022/07/31 02:59:15;;;;;;;;;;;17.60;99.90;;;;;;5113883;28;19928;-69
2022/07/31 03:01:41;;;;;;;;;;;17.60;99.90;;;;;;5113912;28;19946;-70
2022/07/31 03:04:07;;;;;;;;;;;17.60;99.90;;;;;;5113695;28;19924;-69
2022/07/31 03:06:32;;;;;;;;;;;17.60;99.90;;;;;;5113652;28;19931;-69
2022/07/31 03:08:58;;;;;;;;;;;17.60;99.90;;;;;;5095734;28;19928;-68
2022/07/31 03:11:23;;;;;;;;;;;17.60;99.90;;;;;;5113778;28;19978;-69
2022/07/31 03:13:52;;;;;;;;;;;17.60;99.90;;;;;;5113901;28;19968;-70
2022/07/31 03:16:18;;;;;;;;;;;17.60;99.90;;;;;;5113710;28;19947;-70
2022/07/31 03:18:44;;;;;;;;;;;17.60;99.90;;;;;;5095682;28;20383;-69
2022/07/31 03:21:10;;;;;;;;;;;17.60;99.90;;;;;;5113610;28;19935;-69
2022/07/31 03:23:37;;;;;;;;;;;17.60;99.90;;;;;;5113452;28;19928;-69
2022/07/31 03:26:03;;;;;;;;;;;17.50;99.90;;;;;;5113671;28;19924;-69
2022/07/31 03:28:29;;;;;;;;;;;17.50;99.90;;;;;;5121870;28;19930;-69
2022/07/31 03:30:55;;;;;;;;;;;17.50;99.90;;;;;;5134045;27;19927;-69
2022/07/31 03:33:21;;;;;;;;;;;17.60;99.90;;;;;;5137679;27;20018;-68
2022/07/31 03:35:47;;;;;;;;;;;17.50;99.90;;;;;;5137737;27;20385;-69
2022/07/31 03:38:12;;;;;;;;;;;17.50;99.90;;;;;;5137560;27;20007;-69
2022/07/31 03:40:38;;;;;;;;;;;17.60;99.90;;;;;;5137769;27;19923;-70
2022/07/31 03:43:05;;;;;;;;;;;17.50;99.90;;;;;;5137799;27;19923;-69
2022/07/31 03:45:31;;;;;;;;;;;17.50;99.90;;;;;;5137642;27;19923;-69
2022/07/31 03:47:57;;;;;;;;;;;17.50;99.90;;;;;;5137436;27;19967;-69
2022/07/31 03:50:22;;;;;;;;;;;17.50;99.90;;;;;;5137368;27;19923;-69
2022/07/31 03:52:48;;;;;;;;;;;17.50;99.90;;;;;;5137221;27;19924;-69
2022/07/31 03:55:14;;;;;;;;;;;17.50;99.90;;;;;;5137465;27;19924;-69
2022/07/31 03:57:41;;;;;;;;;;;17.50;99.90;;;;;;5119074;27;19923;-68
2022/07/31 04:00:07;;;;;;;;;;;17.50;99.90;;;;;;5137354;27;19930;-70
2022/07/31 04:02:33;;;;;;;;;;;17.40;99.90;;;;;;5118955;27;19923;-70
2022/07/31 04:04:58;;;;;;;;;;;17.50;99.90;;;;;;5137189;27;19923;-68
2022/07/31 04:07:24;;;;;;;;;;;17.40;99.90;;;;;;5137023;27;19923;-69
2022/07/31 04:09:50;;;;;;;;;;;17.40;99.90;;;;;;5136983;27;20037;-69
2022/07/31 04:12:15;;;;;;;;;;;17.40;99.90;;;;;;5137129;27;19927;-69
2022/07/31 04:14:41;;;;;;;;;;;17.30;99.90;;;;;;5137084;27;19923;-69
2022/07/31 04:17:07;;;;;;;;;;;17.40;99.90;;;;;;5136956;27;19968;-69
2022/07/31 04:19:32;;;;;;;;;;;17.40;99.90;;;;;;5137044;27;19924;-69
2022/07/31 04:21:58;;;;;;;;;;;17.40;99.90;;;;;;5118822;27;19974;-69
2022/07/31 04:24:24;;;;;;;;;;;17.40;99.90;;;;;;5136694;27;20374;-68
2022/07/31 04:26:50;;;;;;;;;;;17.40;99.90;;;;;;5136826;27;20026;-69
2022/07/31 04:29:16;;;;;;;;;;;17.40;99.90;;;;;;5136483;27;19923;-70
2022/07/31 04:31:44;;;;;;;;;;;17.40;99.90;;;;;;5135875;27;20203;-70
2022/07/31 04:34:09;;;;;;;;;;;17.50;99.90;;;;;;5136555;27;20351;-69
2022/07/31 04:36:35;;;;;;;;;;;17.40;99.90;;;;;;5136505;27;19927;-68
2022/07/31 04:39:00;;;;;;;;;;;17.50;99.90;;;;;;5136330;27;19931;-70
2022/07/31 04:41:26;;;;;;;;;;;17.50;99.90;;;;;;5136955;27;19983;-70
2022/07/31 04:43:52;;;;;;;;;;;17.50;99.90;;;;;;5136583;27;20477;-69
2022/07/31 04:46:17;;;;;;;;;;;17.50;99.90;;;;;;5136436;27;19976;-69
2022/07/31 04:48:43;;;;;;;;;;;17.50;99.90;;;;;;5118290;27;19970;-69
2022/07/31 04:51:14;;;;;;;;;;;17.50;99.90;;;;;;5136190;27;20370;-70
2022/07/31 04:53:40;;;;;;;;;;;17.50;99.90;;;;;;5136179;27;20422;-69
2022/07/31 04:58:49;;;;;;;;;;;17.50;99.90;;;;;;5135951;27;20297;-69
2022/07/31 05:01:15;;;;;;;;;;;17.60;99.90;;;;;;5136120;27;19927;-69
2022/07/31 05:03:41;;;;;;;;;;;17.60;99.90;;;;;;5135984;27;19966;-69
2022/07/31 05:06:10;;;;;;;;;;;17.60;99.90;;;;;;5135932;27;20382;-68
2022/07/31 05:08:35;;;;;;;;;;;17.70;99.90;;;;;;5117437;27;20335;-69
2022/07/31 05:13:45;;;;;;;;;;;17.00;99.90;;;;;;5135844;27;20297;-69
2022/07/31 05:16:11;;;;;;;;;;;17.70;99.90;;;;;;5117759;27;20017;-69
2022/07/31 05:18:37;;;;;;;;;;;17.80;99.90;;;;;;5117350;27;19924;-69
2022/07/31 05:21:02;;;;;;;;;;;17.80;99.90;;;;;;5135577;27;19930;-68
2022/07/31 05:23:28;;;;;;;;;;;17.80;99.90;;;;;;5135867;27;20011;-70
2022/07/31 05:25:54;;;;;;;;;;;17.30;99.90;;;;;;5135708;27;20383;-68
2022/07/31 05:28:19;;;;;;;;;;;17.90;99.90;;;;;;5135704;27;19930;-69
2022/07/31 05:30:45;;;;;;;;;;;17.90;99.90;;;;;;5135502;27;19963;-69
2022/07/31 05:33:10;;;;;;;;;;;17.90;99.90;;;;;;5116577;27;19931;-68
2022/07/31 05:35:36;;;;;;;;;;;18.00;99.90;;;;;;5135399;27;19945;-69
2022/07/31 05:38:01;;;;;;;;;;;18.00;99.90;;;;;;5135350;27;20485;-69
2022/07/31 05:40:27;;;;;;;;;;;18.10;99.90;;;;;;5135506;27;20394;-69
2022/07/31 05:42:54;;;;;;;;;;;18.10;99.90;;;;;;5135293;27;19923;-70
2022/07/31 05:45:19;;;;;;;;;;;18.10;99.90;;;;;;5135314;27;19923;-69
2022/07/31 05:47:45;;;;;;;;;;;18.10;99.90;;;;;;5135224;27;20431;-69
2022/07/31 05:50:10;;;;;;;;;;;18.10;99.90;;;;;;5134166;27;20408;-70
2022/07/31 05:52:36;;;;;;;;;;;18.10;99.90;;;;;;5116512;27;19923;-69
2022/07/31 05:55:02;;;;;;;;;;;18.20;99.90;;;;;;5134781;27;19923;-69
2022/07/31 05:57:27;;;;;;;;;;;18.20;99.90;;;;;;5135131;27;19923;-69
2022/07/31 05:59:53;;;;;;;;;;;18.20;99.90;;;;;;5135038;27;19970;-70
2022/07/31 06:02:18;;;;;;;;;;;18.30;99.90;;;;;;5134804;27;20433;-70
2022/07/31 06:04:44;;;;;;;;;;;18.30;99.90;;;;;;5134830;27;19923;-70
2022/07/31 06:07:09;;;;;;;;;;;18.40;99.90;;;;;;5134726;27;19992;-70
2022/07/31 06:09:35;;;;;;;;;;;18.40;99.90;;;;;;5117005;27;19992;-71
2022/07/31 06:12:01;;;;;;;;;;;18.40;99.90;;;;;;5113108;28;20324;-69
2022/07/31 06:14:27;;;;;;;;;;;18.40;99.90;;;;;;5121469;27;19924;-68
2022/07/31 06:16:52;;;;;;;;;;;18.40;99.90;;;;;;5134704;27;19923;-69
2022/07/31 06:19:19;;;;;;;;;;;18.50;99.90;;;;;;5134414;27;19970;-68
2022/07/31 06:21:44;;;;;;;;;;;18.50;99.90;;;;;;5134697;27;20072;-69
2022/07/31 06:24:10;;;;;;;;;;;18.60;99.90;;;;;;5134588;27;20003;-69
2022/07/31 06:26:36;;;;;;;;;;;18.50;99.90;;;;;;5134560;27;19923;-70
2022/07/31 06:29:02;;;;;;;;;;;18.60;99.90;;;;;;5134590;28;19976;-68
2022/07/31 06:31:27;;;;;;;;;;;18.60;99.90;;;;;;5116435;28;19928;-69
2022/07/31 06:33:53;;;;;;;;;;;18.60;99.90;;;;;;5134516;28;20297;-69
2022/07/31 06:36:18;;;;;;;;;;;18.60;99.90;;;;;;5134658;28;19946;-70
2022/07/31 06:38:47;;;;;;;;;;;18.60;99.90;;;;;;5116377;28;19927;-69
2022/07/31 06:43:56;;;;;;;;;;;18.20;99.90;;;;;;5134536;28;19923;-69
2022/07/31 06:46:22;;;;;;;;;;;18.70;99.90;;;;;;5134496;28;19924;-69
2022/07/31 06:48:47;;;;;;;;;;;18.70;99.90;;;;;;5134303;28;20023;-69
2022/07/31 06:51:13;;;;;;;;;;;18.70;99.90;;;;;;5116180;28;20267;-68
2022/07/31 06:53:39;;;;;;;;;;;18.70;99.90;;;;;;5134277;28;19923;-69
2022/07/31 06:56:04;;;;;;;;;;;18.80;99.90;;;;;;5134475;28;19923;-69
2022/07/31 06:58:30;;;;;;;;;;;18.80;99.90;;;;;;5134507;28;19976;-70
2022/07/31 07:00:56;;;;;;;;;;;18.80;99.90;;;;;;5134338;28;19934;-69
2022/07/31 07:03:21;;;;;;;;;;;18.80;99.90;;;;;;5134004;28;19923;-69
2022/07/31 07:05:47;;;;;;;;;;;18.90;99.90;;;;;;5116255;28;19984;-70
2022/07/31 07:08:13;;;;;;;;;;;18.90;99.90;;;;;;5138038;27;19968;-69
2022/07/31 07:10:38;;;;;;;;;;;18.90;99.90;;;;;;5138360;27;20298;-70
2022/07/31 07:13:04;;;;;;;;;;;19.00;99.90;;;;;;5138151;27;20315;-69
2022/07/31 07:15:29;;;;;;;;;;;19.00;99.90;;;;;;5119791;27;20440;-69
2022/07/31 07:17:55;;;;;;;;;;;19.00;99.90;;;;;;5138046;27;20396;-69
2022/07/31 07:20:20;;;;;;;;;;;19.00;99.90;;;;;;5119245;27;20442;-68
2022/07/31 07:22:46;;;;;;;;;;;19.10;99.90;;;;;;5119138;27;20342;-70
2022/07/31 07:25:12;;;;;;;;;;;19.10;99.90;;;;;;5138126;27;19976;-70
2022/07/31 07:27:37;;;;;;;;;;;19.10;99.90;;;;;;5137875;27;20013;-69
2022/07/31 07:30:03;;;;;;;;;;;19.20;99.90;;;;;;5137939;27;19968;-70
2022/07/31 07:32:47;;;;;;;;;;;19.20;99.90;;;;;;5137850;27;20289;-69
2022/07/31 07:35:13;;;;;;;;;;;19.20;99.90;;;;;;5119451;27;19930;-68
2022/07/31 07:37:39;;;;;;;;;;;19.30;99.90;;;;;;5137609;27;19923;-69
2022/07/31 07:40:05;;;;;;;;;;;19.30;99.90;;;;;;5137728;27;20358;-69
2022/07/31 07:42:31;;;;;;;;;;;19.40;99.90;;;;;;5126196;27;19924;-68
2022/07/31 07:44:57;;;;;;;;;;;19.40;99.90;;;;;;5132692;27;20017;-69
2022/07/31 07:47:23;;;;;;;;;;;19.40;99.90;;;;;;5137618;27;19924;-70
2022/07/31 07:49:48;;;;;;;;;;;19.40;99.90;;;;;;5137294;27;19931;-68
2022/07/31 07:52:14;;;;;;;;;;;19.40;99.90;;;;;;5137220;27;19966;-70
2022/07/31 07:54:41;;;;;;;;;;;19.50;99.90;;;;;;5119096;27;19923;-69
2022/07/31 07:57:07;;;;;;;;;;;19.50;99.90;;;;;;5137196;27;20013;-70
2022/07/31 07:59:33;;;;;;;;;;;19.50;99.90;;;;;;5119296;27;20419;-70
2022/07/31 08:01:59;;;;;;;;;;;19.50;99.90;;;;;;5119157;27;19927;-70
2022/07/31 08:04:24;;;;;;;;;;;19.60;99.90;;;;;;5137152;27;19923;-70
2022/07/31 08:06:50;;;;;;;;;;;19.60;99.90;;;;;;5136931;27;19927;-69
2022/07/31 08:09:16;;;;;;;;;;;19.60;99.90;;;;;;5136966;27;20010;-69
2022/07/31 08:11:41;;;;;;;;;;;19.70;99.90;;;;;;5136899;27;19923;-70
2022/07/31 08:14:07;;;;;;;;;;;19.70;99.90;;;;;;5137174;27;19924;-69
2022/07/31 08:16:32;;;;;;;;;;;19.70;99.90;;;;;;5118542;27;19923;-69
2022/07/31 08:18:58;;;;;;;;;;;19.80;99.90;;;;;;5118350;27;19923;-69
2022/07/31 08:21:23;;;;;;;;;;;19.80;99.90;;;;;;5136904;27;19947;-70
2022/07/31 08:23:49;;;;;;;;;;;19.80;99.90;;;;;;5136783;27;20370;-69
2022/07/31 08:26:16;;;;;;;;;;;19.80;99.90;;;;;;5136927;27;20416;-70
2022/07/31 08:28:42;;;;;;;;;;;19.80;99.90;;;;;;5136676;27;20064;-69
2022/07/31 08:31:08;;;;;;;;;;;19.80;99.90;;;;;;5136503;27;20021;-68
2022/07/31 08:33:33;;;;;;;;;;;19.90;99.90;;;;;;5118541;27;19923;-69
2022/07/31 08:35:59;;;;;;;;;;;19.90;99.90;;;;;;5136485;27;19923;-70
2022/07/31 08:38:25;;;;;;;;;;;19.90;99.90;;;;;;5136445;27;19930;-68
2022/07/31 08:40:51;;;;;;;;;;;19.90;99.90;;;;;;5136340;27;19924;-70
2022/07/31 08:43:16;;;;;;;;;;;20.00;99.90;;;;;;5136608;27;19924;-70
2022/07/31 08:45:42;;;;;;;;;;;19.90;99.90;;;;;;5136370;27;19930;-69
2022/07/31 08:48:08;;;;;;;;;;;20.00;99.90;;;;;;5136273;27;19931;-69
2022/07/31 08:50:37;;;;;;;;;;;20.10;99.90;;;;;;5136254;27;19923;-69
2022/07/31 08:53:03;;;;;;;;;;;20.10;99.90;;;;;;5136153;27;19923;-68
2022/07/31 08:55:30;;;;;;;;;;;20.10;99.90;;;;;;5118282;27;20602;-69
2022/07/31 08:57:55;;;;;;;;;;;20.20;99.90;;;;;;5136212;27;19923;-68
2022/07/31 09:00:21;;;;;;;;;;;20.30;99.90;;;;;;5136105;27;19956;-70
2022/07/31 09:02:47;;;;;;;;;;;20.40;99.90;;;;;;5135962;27;19991;-69
2022/07/31 09:05:13;;;;;;;;;;;20.50;99.90;;;;;;5135956;27;20021;-70
2022/07/31 09:07:39;;;;;;;;;;;20.50;99.90;;;;;;5117411;27;20015;-69
2022/07/31 09:10:27;;;;;;;;;;;20.60;99.90;;;;;;5135820;27;19923;-69
2022/07/31 09:12:54;;;;;;;;;;;20.70;99.90;;;;;;5071452;28;19939;-69
2022/07/31 09:15:22;;;;;;;;;;;20.70;99.90;;;;;;5072365;28;19928;-69
2022/07/31 09:17:48;;;;;;;;;;;20.80;99.90;;;;;;5072181;28;20029;-70
2022/07/31 09:20:25;;;;;;;;;;;20.80;99.90;;;;;;5072328;28;20438;-69
2022/07/31 09:23:02;;;;;;;;;;;20.90;99.90;;;;;;5055903;28;20063;-70
2022/07/31 09:25:28;;;;;;;;;;;20.90;99.90;;;;;;5072286;28;19931;-69
2022/07/31 09:27:59;;;;;;;;;;;20.90;99.90;;;;;;5071866;28;20019;-69
2022/07/31 09:30:25;;;;;;;;;;;21.00;99.90;;;;;;5071456;28;20034;-69
2022/07/31 09:32:51;;;;;;;;;;;21.00;99.90;;;;;;5071875;28;20441;-70
2022/07/31 09:35:17;;;;;;;;;;;20.90;99.90;;;;;;5072010;28;20283;-69
2022/07/31 09:37:45;;;;;;;;;;;20.90;99.90;;;;;;5071926;28;19932;-70
2022/07/31 09:40:11;;;;;;;;;;;20.90;99.90;;;;;;5071963;28;19978;-70
2022/07/31 09:42:39;;;;;;;;;;;20.80;99.90;;;;;;5071691;28;19932;-69
2022/07/31 09:45:16;;;;;;;;;;;20.80;99.90;;;;;;5071861;28;20011;-69
2022/07/31 09:47:42;;;;;;;;;;;20.70;99.90;;;;;;5055515;28;19930;-70
2022/07/31 09:50:08;;;;;;;;;;;20.70;99.90;;;;;;5080576;28;19985;-70
2022/07/31 09:52:34;;;;;;;;;;;20.60;99.90;;;;;;5114078;28;19924;-69
2022/07/31 09:55:08;;;;;;;;;;;20.60;99.90;;;;;;5113835;28;19924;-70
2022/07/31 09:57:36;;;;;;;;;;;20.60;99.90;;;;;;5114351;28;19931;-70
2022/07/31 10:00:03;;;;;;;;;;;20.50;99.90;;;;;;5114371;28;20351;-69
2022/07/31 10:02:30;;;;;;;;;;;20.50;99.90;;;;;;5114302;28;20030;-69
2022/07/31 10:04:56;;;;;;;;;;;20.40;99.90;;;;;;5114042;28;19973;-71
2022/07/31 10:07:26;;;;;;;;;;;20.40;99.90;;;;;;5114435;28;19947;-69
2022/07/31 10:09:56;;;;;;;;;;;20.40;99.90;;;;;;5114458;28;19975;-71
2022/07/31 10:12:21;;;;;;;;;;;20.40;99.90;;;;;;5113960;28;19924;-70
2022/07/31 10:14:49;;;;;;;;;;;20.30;99.90;;;;;;5114073;28;19931;-70
2022/07/31 10:17:19;;;;;;;;;;;20.30;99.90;;;;;;5114108;28;19969;-69
2022/07/31 10:19:46;;;;;;;;;;;20.30;99.90;;;;;;5114213;28;19976;-70
2022/07/31 10:22:13;;;;;;;;;;;20.30;99.90;;;;;;5096323;28;19924;-71
2022/07/31 10:24:41;;;;;;;;;;;20.30;99.90;;;;;;5114200;28;19928;-70
2022/07/31 10:27:08;;;;;;;;;;;20.20;99.90;;;;;;5114181;28;19923;-69
2022/07/31 10:29:37;;;;;;;;;;;20.20;99.90;;;;;;5131403;28;19924;-70
2022/07/31 10:32:04;;;;;;;;;;;20.20;99.90;;;;;;5134295;28;19969;-69
2022/07/31 10:34:31;;;;;;;;;;;20.20;99.90;;;;;;5134722;28;19968;-70
2022/07/31 10:37:01;;;;;;;;;;;20.10;99.90;;;;;;5115919;28;19924;-70
2022/07/31 10:39:30;;;;;;;;;;;20.10;99.90;;;;;;5133658;27;19923;-68
2022/07/31 10:41:57;;;;;;;;;;;20.10;99.90;;;;;;5119765;27;19924;-70
2022/07/31 10:44:25;;;;;;;;;;;20.00;99.90;;;;;;5120188;27;19927;-69
2022/07/31 10:46:52;;;;;;;;;;;20.00;99.90;;;;;;5139019;27;19924;-69
2022/07/31 10:49:38;;;;;;;;;;;19.90;99.90;;;;;;5138678;27;20326;-69
2022/07/31 10:52:05;;;;;;;;;;;19.90;99.90;;;;;;5119935;27;20320;-70
2022/07/31 10:54:44;;;;;;;;;;;19.80;99.90;;;;;;5138339;27;19946;-70
2022/07/31 10:57:27;;;;;;;;;;;19.80;99.90;;;;;;5138378;27;19982;-70
2022/07/31 10:59:52;;;;;;;;;;;19.80;99.90;;;;;;5138558;27;19930;-70
2022/07/31 11:02:28;;;;;;;;;;;19.80;99.90;;;;;;5138401;27;20331;-70
2022/07/31 11:05:05;;;;;;;;;;;19.80;99.90;;;;;;5138231;27;19976;-69
2022/07/31 11:07:32;;;;;;;;;;;19.80;99.90;;;;;;5154531;27;19931;-69
2022/07/31 11:10:15;;;;;;;;;;;19.70;99.90;;;;;;5120097;27;20362;-70
2022/07/31 11:12:42;;;;;;;;;;;19.70;99.90;;;;;;5137970;27;19930;-69
2022/07/31 11:15:22;;;;;;;;;;;19.70;99.90;;;;;;5138235;27;19927;-70
2022/07/31 11:17:49;;;;;;;;;;;19.70;99.90;;;;;;5119853;27;20027;-69
2022/07/31 11:20:24;;;;;;;;;;;19.70;99.90;;;;;;5137920;27;20368;-71
2022/07/31 11:22:58;;;;;;;;;;;19.70;99.90;;;;;;5138114;27;20278;-71
2022/07/31 11:25:28;;;;;;;;;;;19.70;99.90;;;;;;5138070;27;20010;-70
2022/07/31 11:27:55;;;;;;;;;;;19.70;99.90;;;;;;5137435;27;20022;-69
2022/07/31 11:30:22;;;;;;;;;;;19.70;99.90;;;;;;5137093;27;19931;-71
2022/07/31 11:32:51;;;;;;;;;;;19.70;99.90;;;;;;5137497;27;20393;-71
2022/07/31 11:35:25;;;;;;;;;;;19.70;99.90;;;;;;5119525;27;19979;-70
2022/07/31 11:37:51;;;;;;;;;;;19.70;99.90;;;;;;5137490;27;19924;-69
2022/07/31 11:40:19;;;;;;;;;;;19.70;99.90;;;;;;5137732;27;20285;-70
2022/07/31 11:42:46;;;;;;;;;;;19.70;99.90;;;;;;5137270;27;19923;-70
2022/07/31 11:45:14;;;;;;;;;;;19.70;99.90;;;;;;5119276;27;19924;-71
2022/07/31 11:47:44;;;;;;;;;;;19.70;99.90;;;;;;5137621;27;19924;-70
2022/07/31 11:50:12;;;;;;;;;;;19.70;99.90;;;;;;5137361;27;19923;-70
2022/07/31 11:52:42;;;;;;;;;;;19.70;99.90;;;;;;5136497;27;19930;-70
2022/07/31 11:55:09;;;;;;;;;;;19.70;99.90;;;;;;5137420;27;19930;-71
2022/07/31 11:57:35;;;;;;;;;;;19.70;99.90;;;;;;5119307;27;19976;-70
2022/07/31 12:00:11;;;;;;;;;;;19.70;99.90;;;;;;5118718;27;19973;-70
2022/07/31 12:02:43;;;;;;;;;;;19.70;99.90;;;;;;5137407;27;20075;-71
2022/07/31 12:05:12;;;;;;;;;;;19.70;99.90;;;;;;5137166;27;19927;-71
2022/07/31 12:07:42;;;;;;;;;;;19.70;99.90;;;;;;5137148;27;19923;-70
2022/07/31 12:10:12;;;;;;;;;;;19.70;99.90;;;;;;5118790;27;20385;-69
2022/07/31 12:12:38;;;;;;;;;;;19.70;99.90;;;;;;5152041;27;20434;-70
2022/07/31 12:15:13;;;;;;;;;;;19.70;99.90;;;;;;5137206;27;19976;-70
2022/07/31 12:17:41;;;;;;;;;;;19.60;99.90;;;;;;5136694;27;20267;-70
2022/07/31 12:20:08;;;;;;;;;;;19.60;99.90;;;;;;5136647;27;19927;-69
2022/07/31 12:22:35;;;;;;;;;;;19.60;99.90;;;;;;5136698;27;20386;-71
2022/07/31 12:25:02;;;;;;;;;;;19.60;99.90;;;;;;5136770;27;19923;-69
2022/07/31 12:27:29;;;;;;;;;;;19.50;99.90;;;;;;5136575;27;19975;-71
2022/07/31 12:29:56;;;;;;;;;;;19.50;99.90;;;;;;5148799;27;19930;-70
2022/07/31 12:32:24;;;;;;;;;;;19.50;99.90;;;;;;5116159;27;20350;-71
2022/07/31 12:35:01;;;;;;;;;;;19.50;99.90;;;;;;5115107;28;19923;-71
2022/07/31 12:37:28;;;;;;;;;;;19.40;99.90;;;;;;5114783;28;20279;-70
2022/07/31 12:39:55;;;;;;;;;;;19.40;99.90;;;;;;5115839;27;19930;-70
2022/07/31 12:42:22;;;;;;;;;;;19.40;99.90;;;;;;5114955;28;19974;-70
2022/07/31 12:44:49;;;;;;;;;;;19.30;99.90;;;;;;5115956;27;19924;-71
2022/07/31 12:47:22;;;;;;;;;;;19.30;99.90;;;;;;5115899;28;19924;-70
2022/07/31 12:49:48;;;;;;;;;;;19.30;99.90;;;;;;5115540;28;20011;-70
2022/07/31 12:52:14;;;;;;;;;;;19.20;99.90;;;;;;5131997;27;20018;-70
2022/07/31 12:54:40;;;;;;;;;;;19.20;99.90;;;;;;5156833;27;19923;-70
2022/07/31 12:57:06;;;;;;;;;;;19.20;99.90;;;;;;5156900;27;19975;-70
2022/07/31 12:59:32;;;;;;;;;;;19.20;99.90;;;;;;5138590;27;20011;-70
2022/07/31 13:01:58;;;;;;;;;;;19.20;99.90;;;;;;5117511;27;19970;-71
2022/07/31 13:04:25;;;;;;;;;;;19.10;99.90;;;;;;5114282;28;20041;-70
2022/07/31 13:06:51;;;;;;;;;;;19.10;99.90;;;;;;5114107;28;19977;-69
2022/07/31 13:09:17;;;;;;;;;;;19.10;99.90;;;;;;5115408;28;19931;-70
2022/07/31 13:11:43;;;;;;;;;;;19.00;99.90;;;;;;5115399;28;19931;-70
2022/07/31 13:14:09;;;;;;;;;;;19.00;99.90;;;;;;5148504;27;20010;-70
2022/07/31 13:16:36;;;;;;;;;;;19.00;99.90;;;;;;5115371;27;19924;-71
2022/07/31 13:19:04;;;;;;;;;;;19.00;99.90;;;;;;5114993;28;20279;-69
2022/07/31 13:21:30;;;;;;;;;;;19.00;99.90;;;;;;5115220;27;19924;-70
2022/07/31 13:23:57;;;;;;;;;;;18.90;99.90;;;;;;5115048;28;19931;-69
2022/07/31 13:26:25;;;;;;;;;;;18.90;99.90;;;;;;5114996;28;19924;-71
2022/07/31 13:28:52;;;;;;;;;;;18.90;99.90;;;;;;5123867;27;19923;-69
2022/07/31 13:31:18;;;;;;;;;;;18.80;99.90;;;;;;5135068;27;19924;-71
2022/07/31 13:33:56;;;;;;;;;;;18.80;99.90;;;;;;5135185;27;19923;-70
2022/07/31 13:36:22;;;;;;;;;;;18.80;99.90;;;;;;5135168;27;20405;-71
2022/07/31 13:38:50;;;;;;;;;;;18.80;99.90;;;;;;5135037;27;19931;-70
2022/07/31 13:41:19;;;;;;;;;;;18.80;99.90;;;;;;5135453;27;19930;-69
2022/07/31 13:43:47;;;;;;;;;;;18.70;99.90;;;;;;5135337;27;19923;-71
2022/07/31 13:46:13;;;;;;;;;;;18.70;99.90;;;;;;5135192;27;20006;-70
2022/07/31 13:48:39;;;;;;;;;;;18.70;99.90;;;;;;5135108;27;20350;-70
2022/07/31 13:51:05;;;;;;;;;;;18.70;99.90;;;;;;5135020;27;20404;-69
2022/07/31 13:53:32;;;;;;;;;;;18.70;99.90;;;;;;5134905;27;19923;-70
2022/07/31 13:55:59;;;;;;;;;;;18.70;99.90;;;;;;5134957;27;20386;-71
2022/07/31 13:58:26;;;;;;;;;;;18.70;99.90;;;;;;5134917;27;19927;-70
2022/07/31 14:00:53;;;;;;;;;;;18.70;99.90;;;;;;5135080;27;19924;-70
2022/07/31 14:03:19;;;;;;;;;;;18.70;99.90;;;;;;5134907;27;19986;-69
2022/07/31 14:05:44;;;;;;;;;;;18.70;99.90;;;;;;5134756;27;19927;-70
2022/07/31 14:08:11;;;;;;;;;;;18.70;99.90;;;;;;5134675;27;19923;-70
2022/07/31 14:10:37;;;;;;;;;;;18.70;99.90;;;;;;5134638;27;20370;-70
2022/07/31 14:13:03;;;;;;;;;;;18.70;99.90;;;;;;5150814;27;19927;-70
2022/07/31 14:15:30;;;;;;;;;;;18.70;99.90;;;;;;5134446;27;19923;-70
2022/07/31 14:17:57;;;;;;;;;;;18.70;99.90;;;;;;5134725;27;19930;-71
2022/07/31 14:20:23;;;;;;;;;;;18.70;99.90;;;;;;5134656;27;19945;-70
2022/07/31 14:22:48;;;;;;;;;;;18.70;99.90;;;;;;5134285;27;20417;-70